First Ferry Viii — VRS4306 — position and weather

sailwx.info

Track history (hours):
 
Tides and Currents Weather Stations Pressure Air Temp Water Temp Dewpoint Dewpoint Depression Visibility Wind Speed Wind Dir Waves Ship Positions

First Ferry Viii

Last reported at 2014-Jul-23 11:04 UTC. Time now 2014-Jul-23 11:58 UTC.
Position N 22°18' E 114°08'.

Length 36 m; draft 1.8 m.

Type: High speed craft. MMSI: 477995030.

Date/timePositionNaut miles runAvg speedWind from/ knotsBaromVisibWave heightAir tempDewpointWater temp
2014-Jul-23 11:04N 22°18' E 114°08'1 2.1
2014-Jul-23 10:26N 22°17' E 114°10'1 0.3
2014-Jul-23 05:31N 22°19' E 114°09'2 0.5
2014-Jul-23 02:31N 22°17' E 114°10'1 0.6
2014-Jul-23 01:33N 22°17' E 114°10'2 1.3
2014-Jul-23 00:11N 22°17' E 114°08'2 2.9
2014-Jul-22 23:34N 22°17' E 114°10'0 0.0
2014-Jul-22 16:34N 22°17' E 114°09'1 0.8
2014-Jul-22 15:08N 22°18' E 114°08'1 2.1
2014-Jul-22 14:31N 22°17' E 114°10'1 0.7
2014-Jul-22 13:08N 22°18' E 114°09'0 0.8
2014-Jul-22 12:33N 22°18' E 114°09'1 0.2
2014-Jul-22 09:09N 22°17' E 114°10'0 0.1
2014-Jul-22 07:20N 22°17' E 114°09'0 0.2
2014-Jul-22 05:26N 22°17' E 114°10'1 0.1
2014-Jul-22 01:33N 22°17' E 114°09'1 0.6
2014-Jul-22 00:09N 22°18' E 114°08'1 2.0
2014-Jul-21 23:34N 22°17' E 114°10'0 0.0
2014-Jul-21 16:33N 22°17' E 114°10'1 0.8
2014-Jul-21 15:08N 22°18' E 114°08'1 0.2
2014-Jul-21 09:19N 22°17' E 114°10'0 0.0
2014-Jul-21 07:20N 22°17' E 114°10'0 0.0
2014-Jul-21 05:29N 22°17' E 114°10'1 0.3
2014-Jul-21 01:06N 22°19' E 114°09'1 0.7
2014-Jul-20 23:33N 22°18' E 114°09'0 0.0
2014-Jul-20 16:33N 22°17' E 114°10'1 0.9
2014-Jul-20 15:08N 22°18' E 114°08'1 1.8
2014-Jul-20 14:33N 22°17' E 114°09'1 0.7
2014-Jul-20 13:09N 22°18' E 114°08'1 1.8
2014-Jul-20 12:25N 22°17' E 114°10'2 1.2
2014-Jul-20 11:08N 22°18' E 114°08'2 0.3
2014-Jul-20 06:28N 22°17' E 114°10'0 0.1
2014-Jul-20 04:33N 22°17' E 114°09'0 0.1
2014-Jul-20 02:33N 22°17' E 114°10'1 1.0
2014-Jul-20 01:08N 22°18' E 114°08'2 2.8
2014-Jul-20 00:28N 22°19' E 114°09'2 0.2
2014-Jul-19 12:33N 22°17' E 114°10'1 0.9
2014-Jul-19 11:09N 22°18' E 114°08'1 1.7
2014-Jul-19 10:27N 22°17' E 114°10'0 0.0
2014-Jul-19 06:20N 22°17' E 114°10'0 0.0
2014-Jul-19 04:20N 22°17' E 114°10'0 0.0
2014-Jul-19 02:15N 22°17' E 114°10'0 0.4
2014-Jul-19 01:33N 22°17' E 114°09'1 0.9
2014-Jul-19 00:09N 22°18' E 114°08'2 0.2
2014-Jul-18 12:16N 22°17' E 114°10'2 1.5
2014-Jul-18 11:08N 22°18' E 114°08'2 0.4
2014-Jul-18 06:32N 22°17' E 114°10'1 0.3
2014-Jul-18 04:22N 22°17' E 114°10'0 0.0
2014-Jul-18 02:31N 22°17' E 114°10'2 1.5
2014-Jul-18 01:17N 22°19' E 114°09'2 0.8
2014-Jul-17 23:11N 22°18' E 114°08'1 0.1
2014-Jul-17 12:11N 22°18' E 114°10'1 1.1
2014-Jul-17 11:07N 22°18' E 114°08'1 2.1
2014-Jul-17 10:32N 22°17' E 114°10'0 0.1
2014-Jul-17 06:28N 22°17' E 114°10'0 0.2
2014-Jul-17 04:18N 22°17' E 114°10'0 0.0
2014-Jul-17 02:14N 22°17' E 114°10'0 0.1
2014-Jul-17 01:33N 22°17' E 114°10'1 1.0
2014-Jul-17 00:08N 22°18' E 114°08'3 2.4
2014-Jul-16 23:04N 22°17' E 114°11'0 0.0
2014-Jul-16 12:13N 22°18' E 114°11'2 2.0
2014-Jul-16 11:05N 22°18' E 114°08'1 1.8
2014-Jul-16 10:27N 22°17' E 114°10'0 0.1
2014-Jul-16 06:31N 22°18' E 114°09'0 0.2
2014-Jul-16 04:20N 22°17' E 114°10'0 0.0
2014-Jul-16 02:32N 22°17' E 114°10'0 0.0
2014-Jul-16 01:33N 22°17' E 114°10'4 3.1
2014-Jul-16 00:17N 22°16' E 114°05'4 5.0
2014-Jul-15 23:24N 22°17' E 114°10'1 0.1
2014-Jul-15 12:15N 22°18' E 114°11'2 2.0
2014-Jul-15 11:08N 22°18' E 114°08'1 1.7
2014-Jul-15 10:28N 22°17' E 114°10'0 0.2
2014-Jul-15 07:29N 22°17' E 114°10'1 0.3
2014-Jul-15 05:18N 22°17' E 114°10'0 0.1
2014-Jul-15 03:19N 22°17' E 114°10'0 0.2
2014-Jul-15 01:33N 22°17' E 114°09'4 3.0
2014-Jul-15 00:18N 22°17' E 114°05'4 0.4
2014-Jul-14 12:13N 22°17' E 114°10'1 1.2
2014-Jul-14 11:06N 22°18' E 114°08'2 0.4
2014-Jul-14 06:32N 22°17' E 114°10'0 0.2
2014-Jul-14 04:26N 22°17' E 114°10'1 0.8
2014-Jul-14 02:33N 22°18' E 114°08'1 0.8
2014-Jul-14 01:14N 22°19' E 114°09'1 0.6
2014-Jul-13 23:04N 22°18' E 114°08'0 0.0
2014-Jul-13 12:33N 22°18' E 114°09'  
Track history (hours):
 
Tides and Currents Weather Stations Pressure Air Temp Water Temp Dewpoint Dewpoint Depression Visibility Wind Speed Wind Dir Waves Ship Positions

First Ferry Viii

Last reported at 2014-Jul-23 11:04 UTC. Time now 2014-Jul-23 11:58 UTC.
Position N 22°18' E 114°08'.

Length 36 m; draft 1.8 m.

Type: High speed craft. MMSI: 477995030.

Date/timePositionNaut miles runAvg speedWind from/ knotsBaromVisibWave heightAir tempDewpointWater temp
2014-Jul-23 11:04N 22°18' E 114°08'1 2.1
2014-Jul-23 10:26N 22°17' E 114°10'1 0.3
2014-Jul-23 05:31N 22°19' E 114°09'2 0.5
2014-Jul-23 02:31N 22°17' E 114°10'1 0.6
2014-Jul-23 01:33N 22°17' E 114°10'2 1.3
2014-Jul-23 00:11N 22°17' E 114°08'2 2.9
2014-Jul-22 23:34N 22°17' E 114°10'0 0.0
2014-Jul-22 16:34N 22°17' E 114°09'1 0.8
2014-Jul-22 15:08N 22°18' E 114°08'1 2.1
2014-Jul-22 14:31N 22°17' E 114°10'1 0.7
2014-Jul-22 13:08N 22°18' E 114°09'0 0.8
2014-Jul-22 12:33N 22°18' E 114°09'1 0.2
2014-Jul-22 09:09N 22°17' E 114°10'0 0.1
2014-Jul-22 07:20N 22°17' E 114°09'0 0.2
2014-Jul-22 05:26N 22°17' E 114°10'1 0.1
2014-Jul-22 01:33N 22°17' E 114°09'1 0.6
2014-Jul-22 00:09N 22°18' E 114°08'1 2.0
2014-Jul-21 23:34N 22°17' E 114°10'0 0.0
2014-Jul-21 16:33N 22°17' E 114°10'1 0.8
2014-Jul-21 15:08N 22°18' E 114°08'1 0.2
2014-Jul-21 09:19N 22°17' E 114°10'0 0.0
2014-Jul-21 07:20N 22°17' E 114°10'0 0.0
2014-Jul-21 05:29N 22°17' E 114°10'1 0.3
2014-Jul-21 01:06N 22°19' E 114°09'1 0.7
2014-Jul-20 23:33N 22°18' E 114°09'0 0.0
2014-Jul-20 16:33N 22°17' E 114°10'1 0.9
2014-Jul-20 15:08N 22°18' E 114°08'1 1.8
2014-Jul-20 14:33N 22°17' E 114°09'1 0.7
2014-Jul-20 13:09N 22°18' E 114°08'1 1.8
2014-Jul-20 12:25N 22°17' E 114°10'2 1.2
2014-Jul-20 11:08N 22°18' E 114°08'2 0.3
2014-Jul-20 06:28N 22°17' E 114°10'0 0.1
2014-Jul-20 04:33N 22°17' E 114°09'0 0.1
2014-Jul-20 02:33N 22°17' E 114°10'1 1.0
2014-Jul-20 01:08N 22°18' E 114°08'2 2.8
2014-Jul-20 00:28N 22°19' E 114°09'2 0.2
2014-Jul-19 12:33N 22°17' E 114°10'1 0.9
2014-Jul-19 11:09N 22°18' E 114°08'1 1.7
2014-Jul-19 10:27N 22°17' E 114°10'0 0.0
2014-Jul-19 06:20N 22°17' E 114°10'0 0.0
2014-Jul-19 04:20N 22°17' E 114°10'0 0.0
2014-Jul-19 02:15N 22°17' E 114°10'0 0.4
2014-Jul-19 01:33N 22°17' E 114°09'1 0.9
2014-Jul-19 00:09N 22°18' E 114°08'2 0.2
2014-Jul-18 12:16N 22°17' E 114°10'2 1.5
2014-Jul-18 11:08N 22°18' E 114°08'2 0.4
2014-Jul-18 06:32N 22°17' E 114°10'1 0.3
2014-Jul-18 04:22N 22°17' E 114°10'0 0.0
2014-Jul-18 02:31N 22°17' E 114°10'2 1.5
2014-Jul-18 01:17N 22°19' E 114°09'2 0.8
2014-Jul-17 23:11N 22°18' E 114°08'1 0.1
2014-Jul-17 12:11N 22°18' E 114°10'1 1.1
2014-Jul-17 11:07N 22°18' E 114°08'1 2.1
2014-Jul-17 10:32N 22°17' E 114°10'0 0.1
2014-Jul-17 06:28N 22°17' E 114°10'0 0.2
2014-Jul-17 04:18N 22°17' E 114°10'0 0.0
2014-Jul-17 02:14N 22°17' E 114°10'0 0.1
2014-Jul-17 01:33N 22°17' E 114°10'1 1.0
2014-Jul-17 00:08N 22°18' E 114°08'3 2.4
2014-Jul-16 23:04N 22°17' E 114°11'0 0.0
2014-Jul-16 12:13N 22°18' E 114°11'2 2.0
2014-Jul-16 11:05N 22°18' E 114°08'1 1.8
2014-Jul-16 10:27N 22°17' E 114°10'0 0.1
2014-Jul-16 06:31N 22°18' E 114°09'0 0.2
2014-Jul-16 04:20N 22°17' E 114°10'0 0.0
2014-Jul-16 02:32N 22°17' E 114°10'0 0.0
2014-Jul-16 01:33N 22°17' E 114°10'4 3.1
2014-Jul-16 00:17N 22°16' E 114°05'4 5.0
2014-Jul-15 23:24N 22°17' E 114°10'1 0.1
2014-Jul-15 12:15N 22°18' E 114°11'2 2.0
2014-Jul-15 11:08N 22°18' E 114°08'1 1.7
2014-Jul-15 10:28N 22°17' E 114°10'0 0.2
2014-Jul-15 07:29N 22°17' E 114°10'1 0.3
2014-Jul-15 05:18N 22°17' E 114°10'0 0.1
2014-Jul-15 03:19N 22°17' E 114°10'0 0.2
2014-Jul-15 01:33N 22°17' E 114°09'4 3.0
2014-Jul-15 00:18N 22°17' E 114°05'4 0.4
2014-Jul-14 12:13N 22°17' E 114°10'1 1.2
2014-Jul-14 11:06N 22°18' E 114°08'2 0.4
2014-Jul-14 06:32N 22°17' E 114°10'0 0.2
2014-Jul-14 04:26N 22°17' E 114°10'1 0.8
2014-Jul-14 02:33N 22°18' E 114°08'1 0.8
2014-Jul-14 01:14N 22°19' E 114°09'1 0.6
2014-Jul-13 23:04N 22°18' E 114°08'0 0.0
2014-Jul-13 12:33N 22°18' E 114°09'  

Dump ship's entire track history